createdAt,value
2022-08-03T00:02:51.465Z,16.80
2022-08-03T00:06:04.720Z,16.80
2022-08-03T00:09:10.637Z,16.90
2022-08-03T00:12:15.128Z,17.00
2022-08-03T00:15:20.153Z,17.00
2022-08-03T00:18:24.564Z,17.00
2022-08-03T00:21:29.484Z,17.00
2022-08-03T00:24:36.123Z,17.10
2022-08-03T00:27:40.570Z,17.20
2022-08-03T00:30:44.802Z,17.20
2022-08-03T00:33:59.305Z,17.20
2022-08-03T00:37:04.578Z,17.30
2022-08-03T00:40:11.851Z,17.30
2022-08-03T00:43:16.477Z,17.40
2022-08-03T00:46:22.360Z,17.50
2022-08-03T00:49:26.694Z,17.50
2022-08-03T00:52:31.009Z,17.50
2022-08-03T00:55:39.011Z,17.50
2022-08-03T00:58:45.664Z,17.60
2022-08-03T01:01:50.323Z,17.60
2022-08-03T01:04:55.122Z,17.60
2022-08-03T01:08:14.818Z,17.70
2022-08-03T01:11:37.386Z,17.70
2022-08-03T01:15:07.816Z,17.60
2022-08-03T01:18:20.582Z,17.70
2022-08-03T01:21:33.920Z,17.70
2022-08-03T01:24:56.834Z,17.70
2022-08-03T01:28:45.878Z,17.80
2022-08-03T01:32:58.465Z,17.80
2022-08-03T01:35:54.113Z,17.80
2022-08-03T01:39:03.702Z,17.80
2022-08-03T01:42:10.888Z,17.80
2022-08-03T01:45:18.654Z,17.90
2022-08-03T01:48:23.615Z,17.90
2022-08-03T01:52:03.430Z,17.90
2022-08-03T01:54:56.798Z,17.90
2022-08-03T01:58:05.504Z,17.90
2022-08-03T02:01:13.541Z,18.00
2022-08-03T02:04:19.015Z,18.00
2022-08-03T02:07:24.674Z,18.00
2022-08-03T02:10:35.231Z,17.90
2022-08-03T02:13:40.843Z,18.00
2022-08-03T02:16:46.071Z,17.90
2022-08-03T02:19:51.010Z,17.90
2022-08-03T02:22:55.800Z,17.90
2022-08-03T02:26:04.575Z,17.80
2022-08-03T02:29:16.320Z,17.80
2022-08-03T02:32:29.422Z,17.80
2022-08-03T02:35:35.668Z,17.70
2022-08-03T02:38:43.701Z,17.60
2022-08-03T02:41:52.329Z,17.70
2022-08-03T02:45:00.943Z,17.60
2022-08-03T02:48:06.829Z,17.50
2022-08-03T02:51:11.728Z,17.50
2022-08-03T02:54:18.775Z,17.50
2022-08-03T02:57:25.799Z,17.60
2022-08-03T03:00:33.170Z,17.50
2022-08-03T03:03:44.650Z,17.50
2022-08-03T03:06:51.238Z,17.60
2022-08-03T03:09:56.943Z,17.50
2022-08-03T03:13:02.540Z,17.50
2022-08-03T03:16:07.965Z,17.40
2022-08-03T03:19:14.227Z,17.40
2022-08-03T03:22:19.426Z,17.50
2022-08-03T03:25:24.392Z,17.50
2022-08-03T03:28:30.439Z,17.50
2022-08-03T03:31:35.418Z,17.60
2022-08-03T03:34:40.710Z,17.70
2022-08-03T03:37:48.905Z,17.80
2022-08-03T03:40:53.843Z,17.80
2022-08-03T03:43:59.019Z,17.80
2022-08-03T03:47:03.829Z,17.80
2022-08-03T03:50:08.170Z,17.80
2022-08-03T03:53:14.047Z,17.80
2022-08-03T03:56:20.596Z,17.80
2022-08-03T03:59:24.838Z,17.80
2022-08-03T04:02:29.563Z,17.80
2022-08-03T04:05:52.602Z,17.70
2022-08-03T04:09:15.822Z,17.70
2022-08-03T04:12:23.099Z,17.70
2022-08-03T04:15:29.085Z,17.80
2022-08-03T04:18:36.372Z,17.90
2022-08-03T04:21:43.302Z,18.10
2022-08-03T04:25:01.351Z,18.20
2022-08-03T04:28:21.004Z,18.30
2022-08-03T04:31:31.274Z,18.20
2022-08-03T04:34:36.099Z,18.30
2022-08-03T04:37:47.943Z,18.40
2022-08-03T04:40:53.804Z,18.60
2022-08-03T04:44:00.795Z,18.80
2022-08-03T04:47:05.568Z,18.70
2022-08-03T04:50:13.494Z,18.80
2022-08-03T04:53:19.728Z,19.00
2022-08-03T04:56:24.442Z,19.30
2022-08-03T04:59:28.788Z,19.50
2022-08-03T05:02:33.546Z,19.50
2022-08-03T05:05:50.311Z,19.60
2022-08-03T05:08:55.826Z,19.60
2022-08-03T05:12:00.898Z,19.60
2022-08-03T05:15:06.638Z,19.60
2022-08-03T05:18:14.229Z,19.70
2022-08-03T05:21:18.985Z,19.70
2022-08-03T05:24:23.520Z,19.80
2022-08-03T05:27:28.078Z,20.00
2022-08-03T05:30:33.828Z,20.20
2022-08-03T05:33:39.426Z,20.40
2022-08-03T05:36:43.619Z,20.50
2022-08-03T05:39:48.629Z,20.50
2022-08-03T05:42:52.985Z,20.60
2022-08-03T05:46:11.636Z,20.70
2022-08-03T05:49:17.594Z,20.80
2022-08-03T05:52:21.803Z,20.90
2022-08-03T05:55:26.630Z,21.00
2022-08-03T05:58:31.241Z,21.20
2022-08-03T06:01:38.072Z,21.20
2022-08-03T06:04:42.447Z,21.40
2022-08-03T06:07:47.065Z,21.50
2022-08-03T06:10:51.657Z,21.70
2022-08-03T06:13:55.921Z,21.80
2022-08-03T06:17:00.327Z,22.00
2022-08-03T06:20:06.153Z,22.40
2022-08-03T06:23:15.946Z,22.80
2022-08-03T06:26:23.378Z,23.20
2022-08-03T06:29:28.141Z,23.30
2022-08-03T06:32:33.695Z,23.60
2022-08-03T06:35:38.446Z,24.10
2022-08-03T06:38:47.182Z,24.10
2022-08-03T06:41:53.532Z,24.20
2022-08-03T06:44:58.194Z,24.60
2022-08-03T06:48:05.200Z,24.70
2022-08-03T06:51:10.098Z,24.60
2022-08-03T06:54:14.527Z,24.80
2022-08-03T06:57:19.097Z,25.20
2022-08-03T07:00:24.027Z,25.50
2022-08-03T07:03:28.523Z,25.60
2022-08-03T07:06:32.762Z,25.60
2022-08-03T07:09:37.127Z,25.60
2022-08-03T07:12:56.233Z,25.30
2022-08-03T07:16:01.399Z,25.70
2022-08-03T07:19:05.870Z,25.90
2022-08-03T07:22:11.433Z,26.40
2022-08-03T07:25:16.361Z,25.90
2022-08-03T07:28:21.249Z,25.70
2022-08-03T07:31:25.745Z,26.40
2022-08-03T07:34:30.606Z,26.40
2022-08-03T07:37:35.531Z,26.20
2022-08-03T07:40:44.447Z,26.10
2022-08-03T07:43:50.196Z,26.10
2022-08-03T07:46:54.506Z,26.40
2022-08-03T07:50:01.466Z,26.80
2022-08-03T07:53:05.916Z,26.80
2022-08-03T07:56:11.314Z,27.20
2022-08-03T07:59:15.902Z,27.60
2022-08-03T08:02:20.415Z,28.20
2022-08-03T08:05:25.984Z,28.10
2022-08-03T08:08:31.475Z,27.50
2022-08-03T08:11:39.906Z,27.40
2022-08-03T08:14:46.666Z,27.00
2022-08-03T08:17:56.443Z,28.10
2022-08-03T08:21:03.159Z,27.40
2022-08-03T08:24:10.996Z,27.00
2022-08-03T08:27:22.678Z,27.30
2022-08-03T08:30:27.323Z,27.50
2022-08-03T08:34:02.658Z,27.00
2022-08-03T08:36:59.474Z,26.60
2022-08-03T08:40:05.456Z,26.40
2022-08-03T08:43:10.255Z,26.10
2022-08-03T08:46:23.355Z,26.10
2022-08-03T08:49:29.345Z,26.00
2022-08-03T08:52:35.202Z,25.80
2022-08-03T08:55:59.324Z,25.90
2022-08-03T08:59:04.231Z,25.80
2022-08-03T09:02:10.290Z,25.80
2022-08-03T09:05:17.216Z,26.10
2022-08-03T09:08:23.185Z,26.30
2022-08-03T09:11:52.489Z,26.10
2022-08-03T09:15:14.712Z,26.10
2022-08-03T09:18:32.571Z,25.90
2022-08-03T09:21:37.618Z,26.20
2022-08-03T09:25:21.655Z,26.20
2022-08-03T09:28:52.449Z,26.40
2022-08-03T09:31:46.565Z,26.30
2022-08-03T09:34:56.533Z,26.20
2022-08-03T09:38:29.254Z,26.10
2022-08-03T09:41:34.214Z,26.00
2022-08-03T09:44:42.764Z,26.30
2022-08-03T09:47:47.065Z,26.60
2022-08-03T09:51:32.312Z,27.10
2022-08-03T09:54:31.646Z,27.10
2022-08-03T09:57:37.036Z,27.50
2022-08-03T10:00:55.335Z,28.50
2022-08-03T10:04:04.264Z,29.40
2022-08-03T10:07:10.846Z,29.40
2022-08-03T10:10:30.575Z,29.50
2022-08-03T10:13:37.806Z,28.70
2022-08-03T10:16:42.376Z,28.20
2022-08-03T10:19:47.383Z,28.50
2022-08-03T10:22:52.423Z,28.00
2022-08-03T10:26:01.809Z,27.60
2022-08-03T10:29:12.907Z,27.80
2022-08-03T10:32:35.621Z,28.00
2022-08-03T10:35:41.296Z,28.50
2022-08-03T10:38:54.327Z,28.40
2022-08-03T10:42:00.055Z,28.40
2022-08-03T10:45:14.806Z,29.40
2022-08-03T10:48:20.679Z,29.60
2022-08-03T10:51:30.527Z,29.20
2022-08-03T10:55:03.329Z,29.30
2022-08-03T10:58:11.651Z,29.80
2022-08-03T11:01:18.031Z,30.30
2022-08-03T11:04:24.513Z,30.50
2022-08-03T11:07:29.030Z,29.80
2022-08-03T11:10:33.488Z,29.50
2022-08-03T11:13:38.539Z,29.60
2022-08-03T11:16:49.679Z,29.50
2022-08-03T11:19:56.922Z,29.70
2022-08-03T11:23:02.900Z,29.70
2022-08-03T11:26:22.577Z,29.40
2022-08-03T11:29:29.260Z,29.70
2022-08-03T11:32:40.300Z,29.20
2022-08-03T11:36:01.991Z,29.90
2022-08-03T11:39:16.739Z,29.60
2022-08-03T11:42:24.876Z,29.60
2022-08-03T11:45:29.527Z,29.90
2022-08-03T11:48:35.093Z,29.90
2022-08-03T11:51:40.577Z,30.40
2022-08-03T11:54:45.977Z,30.60
2022-08-03T11:59:19.066Z,30.40
2022-08-03T12:01:21.217Z,30.10
2022-08-03T12:04:27.407Z,30.60
2022-08-03T12:08:03.273Z,31.60
2022-08-03T12:11:00.155Z,31.00
2022-08-03T12:14:50.295Z,31.00
2022-08-03T12:17:41.275Z,31.00
2022-08-03T12:20:46.779Z,30.20
2022-08-03T12:23:51.764Z,30.00
2022-08-03T12:27:00.008Z,30.80
2022-08-03T12:30:05.424Z,30.40
2022-08-03T12:33:21.814Z,30.80
2022-08-03T12:36:28.676Z,31.00
2022-08-03T12:39:32.977Z,31.60
2022-08-03T12:42:39.544Z,31.20
2022-08-03T12:45:44.369Z,31.40
2022-08-03T12:49:09.143Z,31.60
2022-08-03T12:52:16.138Z,30.90
2022-08-03T12:55:22.097Z,31.30
2022-08-03T12:58:35.600Z,31.30
2022-08-03T13:01:55.295Z,31.80
2022-08-03T13:05:11.648Z,31.80
2022-08-03T13:08:24.245Z,31.30
2022-08-03T13:11:52.536Z,31.80
2022-08-03T13:14:57.120Z,32.00
2022-08-03T13:18:01.943Z,31.50
2022-08-03T13:21:06.340Z,31.90
2022-08-03T13:24:10.556Z,32.00
2022-08-03T13:28:02.022Z,31.50
2022-08-03T13:30:40.611Z,31.30
2022-08-03T13:33:45.114Z,31.30
2022-08-03T13:40:14.756Z,31.40
2022-08-03T13:43:21.171Z,31.20
2022-08-03T13:46:26.965Z,31.10
2022-08-03T13:49:31.791Z,31.20
2022-08-03T13:52:36.724Z,31.10
2022-08-03T13:55:40.928Z,31.30
2022-08-03T13:58:45.244Z,31.20
2022-08-03T14:01:55.249Z,31.60
2022-08-03T14:05:00.140Z,31.80
2022-08-03T14:08:06.683Z,31.50
2022-08-03T14:11:11.867Z,31.50
2022-08-03T14:14:16.359Z,32.30
2022-08-03T14:17:21.064Z,32.80
2022-08-03T14:20:38.568Z,32.10
2022-08-03T14:23:52.303Z,31.00
2022-08-03T14:27:04.484Z,30.50
2022-08-03T14:30:12.570Z,30.40
2022-08-03T14:33:17.300Z,29.80
2022-08-03T14:36:21.451Z,29.80
2022-08-03T14:39:25.844Z,29.60
2022-08-03T14:42:30.457Z,29.70
2022-08-03T14:45:34.958Z,29.60
2022-08-03T14:50:28.474Z,29.60
2022-08-03T14:52:05.401Z,29.70
2022-08-03T14:55:09.994Z,29.80
2022-08-03T14:58:19.552Z,30.80
2022-08-03T15:02:02.425Z,30.80
2022-08-03T15:04:49.890Z,29.80
2022-08-03T15:07:54.587Z,29.80
2022-08-03T15:10:58.996Z,29.30
2022-08-03T15:14:08.679Z,29.30
2022-08-03T15:17:13.939Z,29.30
2022-08-03T15:20:25.451Z,29.30
2022-08-03T15:23:36.585Z,29.10
2022-08-03T15:26:41.874Z,30.30
2022-08-03T15:30:04.875Z,30.30
2022-08-03T15:33:11.293Z,30.60
2022-08-03T15:36:17.343Z,30.10
2022-08-03T15:39:22.073Z,29.50
2022-08-03T15:42:26.330Z,29.10
2022-08-03T15:45:36.278Z,29.30
2022-08-03T15:48:41.284Z,29.70
2022-08-03T15:51:46.104Z,29.60
2022-08-03T15:54:50.634Z,29.10
2022-08-03T15:59:09.917Z,29.10
2022-08-03T16:01:21.266Z,30.70
2022-08-03T16:04:25.894Z,31.30
2022-08-03T16:07:58.645Z,31.50
2022-08-03T16:11:07.866Z,30.90
2022-08-03T16:14:34.766Z,31.50
2022-08-03T16:17:37.613Z,30.90
2022-08-03T16:20:41.916Z,30.50
2022-08-03T16:23:47.153Z,30.90
2022-08-03T16:26:51.782Z,30.30
2022-08-03T16:29:56.525Z,30.50
2022-08-03T16:33:00.878Z,29.60
2022-08-03T16:36:05.339Z,29.00
2022-08-03T16:39:09.673Z,29.10
2022-08-03T16:42:14.193Z,29.00
2022-08-03T16:45:18.904Z,28.80
2022-08-03T16:48:23.665Z,28.90
2022-08-03T16:51:27.976Z,29.00
2022-08-03T16:54:53.972Z,28.70
2022-08-03T16:58:02.143Z,28.10
2022-08-03T17:01:20.781Z,28.30
2022-08-03T17:04:28.202Z,28.60
2022-08-03T17:07:33.692Z,28.20
2022-08-03T17:10:38.907Z,28.10
2022-08-03T17:13:46.322Z,27.90
2022-08-03T17:16:54.173Z,27.50
2022-08-03T17:20:00.606Z,27.50
2022-08-03T17:23:33.850Z,27.50
2022-08-03T17:26:44.716Z,27.50
2022-08-03T17:29:59.049Z,27.10
2022-08-03T17:33:04.342Z,27.00
2022-08-03T17:36:37.021Z,26.90
2022-08-03T17:39:59.269Z,26.80
2022-08-03T17:44:13.141Z,26.80
2022-08-03T17:46:29.953Z,26.70
2022-08-03T17:49:40.213Z,26.60
2022-08-03T17:52:48.287Z,26.50
2022-08-03T18:00:22.795Z,26.30
2022-08-03T18:03:58.525Z,26.10
2022-08-03T18:07:11.610Z,26.10
2022-08-03T18:10:22.870Z,26.00
2022-08-03T18:13:31.195Z,25.80
2022-08-03T18:16:45.287Z,25.70
2022-08-03T18:20:03.366Z,25.60
2022-08-03T18:23:24.996Z,25.60
2022-08-03T18:26:39.923Z,25.60
2022-08-03T18:29:45.326Z,25.40
2022-08-03T18:33:00.948Z,25.30
2022-08-03T18:36:09.652Z,25.20
2022-08-03T18:39:14.719Z,25.10
2022-08-03T18:42:20.449Z,25.00
2022-08-03T18:49:14.598Z,25.20
2022-08-03T18:52:37.464Z,25.20
2022-08-03T18:56:02.812Z,25.20
2022-08-03T19:02:58.912Z,25.10
2022-08-03T19:06:14.576Z,25.00
2022-08-03T19:09:52.437Z,24.90
2022-08-03T19:13:01.097Z,24.80
2022-08-03T19:16:13.087Z,24.70
2022-08-03T19:19:23.973Z,24.70
2022-08-03T19:22:29.241Z,24.60
2022-08-03T19:25:39.307Z,24.60
2022-08-03T19:28:45.702Z,24.40
2022-08-03T19:32:01.214Z,24.30
2022-08-03T19:35:13.314Z,24.10
2022-08-03T19:38:28.486Z,24.00
2022-08-03T19:41:41.582Z,23.80
2022-08-03T19:45:11.312Z,23.70
2022-08-03T19:48:25.042Z,23.60
2022-08-03T19:52:00.704Z,23.50
2022-08-03T19:55:02.992Z,23.40
2022-08-03T19:58:10.331Z,23.40
2022-08-03T20:01:28.812Z,23.30
2022-08-03T20:04:34.040Z,23.20
2022-08-03T20:07:41.060Z,23.10
2022-08-03T20:10:52.524Z,23.00
2022-08-03T20:13:58.411Z,22.90
2022-08-03T20:17:03.129Z,22.80
2022-08-03T20:20:08.293Z,22.70
2022-08-03T20:23:18.128Z,22.60
2022-08-03T20:26:28.468Z,22.50
2022-08-03T20:30:06.767Z,22.50
2022-08-03T20:33:12.269Z,22.40
2022-08-03T20:36:23.451Z,22.30
2022-08-03T20:39:31.734Z,22.30
2022-08-03T20:42:36.522Z,22.30
2022-08-03T20:45:59.578Z,22.20
2022-08-03T20:49:06.122Z,22.20
2022-08-03T20:52:18.386Z,22.10
2022-08-03T20:55:48.068Z,22.10
2022-08-03T20:58:50.971Z,22.00
2022-08-03T21:01:55.222Z,21.90
2022-08-03T21:05:03.718Z,21.90
2022-08-03T21:08:14.189Z,22.00
2022-08-03T21:11:24.887Z,22.00
2022-08-03T21:12:55.924Z,26.40
2022-08-03T21:13:05.030Z,25.10
2022-08-03T21:13:08.290Z,25.10
2022-08-03T21:14:43.654Z,22.00
2022-08-03T21:17:52.904Z,22.00
2022-08-03T21:21:00.959Z,22.00
2022-08-03T21:24:06.382Z,21.90
2022-08-03T21:27:11.311Z,21.90
2022-08-03T21:30:15.962Z,21.90
2022-08-03T21:33:20.950Z,21.90
2022-08-03T21:36:30.674Z,21.80
2022-08-03T21:39:35.527Z,21.80
2022-08-03T21:42:54.913Z,21.80
2022-08-03T21:46:03.424Z,21.70
2022-08-03T21:50:04.834Z,21.50
2022-08-03T21:52:40.426Z,21.50
2022-08-03T21:55:56.846Z,21.40
2022-08-03T21:59:05.518Z,21.30
2022-08-03T22:02:22.388Z,21.20
2022-08-03T22:05:44.000Z,21.10
2022-08-03T22:08:49.314Z,21.00
2022-08-03T22:11:54.815Z,20.90
2022-08-03T22:15:02.132Z,20.90
2022-08-03T22:18:06.907Z,20.70
2022-08-03T22:21:15.328Z,20.50
2022-08-03T22:24:23.830Z,20.50
2022-08-03T22:27:32.549Z,20.50
2022-08-03T22:30:37.291Z,20.40
2022-08-03T22:33:44.752Z,20.20
2022-08-03T22:36:50.331Z,20.10
2022-08-03T22:39:56.696Z,20.00
2022-08-03T22:43:02.411Z,20.00
2022-08-03T22:46:14.402Z,19.90
2022-08-03T22:49:22.900Z,19.90
2022-08-03T22:52:28.663Z,19.90
2022-08-03T22:55:33.382Z,19.80
2022-08-03T22:58:37.590Z,19.80
2022-08-03T23:01:43.564Z,19.80
2022-08-03T23:04:56.944Z,19.60
2022-08-03T23:08:04.355Z,19.50
2022-08-03T23:11:08.835Z,19.40
2022-08-03T23:14:19.151Z,19.40
2022-08-03T23:17:26.315Z,19.40
2022-08-03T23:20:31.052Z,19.40
2022-08-03T23:23:44.269Z,19.30
2022-08-03T23:26:51.065Z,19.30
2022-08-03T23:29:57.462Z,19.20
2022-08-03T23:33:04.076Z,19.20
2022-08-03T23:36:30.609Z,19.10
2022-08-03T23:39:34.873Z,19.00
2022-08-03T23:42:42.079Z,19.00
2022-08-03T23:45:49.123Z,18.90
2022-08-03T23:48:56.630Z,18.90
2022-08-03T23:52:14.041Z,18.90
2022-08-03T23:55:51.576Z,18.80
2022-08-03T23:59:02.539Z,18.80
